Brookline, MA

1:18 PM EST on November 24, 2014 (GMT -0500)
Central Square | Change Station
CLOSE
Current Station
Personal Weather Station
Location: Cambridge, MA
Elevation: 24 ft
Nearby Weather Stations

Elev 24 ft 42.36 °N, 71.11 °W | Updated 3 seconds ago

Overcast
Overcast
65.6 °F
Feels Like 65.6 °F
N
3.0
Wind Variable Wind from SSE
Gusts 11.0 mph

Today
High -- | Low -- °F
--% Chance of Precip.
Yesterday
High -- | Low -- °F
Precip. -- in
6:46 AM 4:15 PM
Waxing Crescent, 6% visible
Pressure 29.63 in
Visibility 8.0 miles
Clouds Overcast 1500 ft
Dew Point 63 °F
Humidity 92%
Rainfall 0.25 in
Snow Depth Not available.
UV 1.0 out of 12
Pollen .10 out of 12
Air Quality Not available.
Flu Activity Not available.
METAR KBOS 241754Z 20015KT 8SM OVC015 18/17 A2963 RMK AO2 RAE36 SLP033 P0000 60025 T01780167 10178 20122 56035

More Conditions Fewer Conditions

Pressure 29.63 in
Visibility 8.0 miles
Clouds Overcast 1500 ft
Dew Point 63 °F
Humidity 92%
Rainfall 0.25 in
Snow Depth Not available.
UV 1.0 out of 12
Pollen .10 out of 12
Air Quality Not available.
Flu Activity Not available.
METAR KBOS 241754Z 20015KT 8SM OVC015 18/17 A2963 RMK AO2 RAE36 SLP033 P0000 60025 T01780167 10178 20122 56035

More Conditions Fewer Conditions

10-Day Weather Forecast

Almanac

Astronomy

Nov. 24, 2014 Rise Set
Actual Time
Civil Twilight
Nautical Twilight
Astronomical Twilight
Moon
Length of Visible Light
Length of Day
Tomorrow will be .
, % of the Moon is Illuminated

Today's Extremes

State Highs State Lows

Community

WunderPhotos

Upload Photos

1,773,385 photos uploaded!

WunderBlogs® & News

Nearby

Air Quality

  Air Quality AQ Index Pollutant
Not available.

Snow Depth

Station Depth Elevation

Earthquake Activity

City Distance Mag. Time & Date
Minimum magnitude displayed is 2.5.

Coastal Water Temperatures

Place Temperature

Nearby Weather Stations